createdAt,value
2023-12-04T11:19:57.934Z,1005.52
2023-12-04T11:20:58.954Z,1005.48
2023-12-04T11:21:59.009Z,1005.49
2023-12-04T11:22:59.060Z,1005.47
2023-12-04T11:23:59.164Z,1005.43
2023-12-04T11:24:59.232Z,1005.48
2023-12-04T11:25:59.298Z,1005.43
2023-12-04T11:26:59.374Z,1005.39
2023-12-04T11:27:59.441Z,1005.35
2023-12-04T11:28:59.548Z,1005.32
2023-12-04T11:29:59.601Z,1005.28
2023-12-04T11:30:59.691Z,1005.27
2023-12-04T11:31:59.775Z,1005.27
2023-12-04T11:32:59.884Z,1005.22
2023-12-04T11:34:00.028Z,1005.21
2023-12-04T11:35:00.011Z,1005.22
2023-12-04T11:36:00.092Z,1005.23
2023-12-04T11:37:00.229Z,1005.24
2023-12-04T11:38:00.240Z,1005.21
2023-12-04T11:39:00.344Z,1005.14
2023-12-04T11:40:00.408Z,1005.17
2023-12-04T11:41:00.476Z,1005.11
2023-12-04T11:42:00.604Z,1005.06
2023-12-04T11:43:00.696Z,1005.08
2023-12-04T11:44:00.754Z,1005.13
2023-12-04T11:45:00.845Z,1005.10
2023-12-04T11:46:00.913Z,1005.08
2023-12-04T11:47:02.966Z,1005.06
2023-12-04T11:48:01.155Z,1005.03
2023-12-04T11:49:01.244Z,1005.08
2023-12-04T11:50:01.242Z,1005.01
2023-12-04T11:51:01.295Z,1005.01
2023-12-04T11:52:01.361Z,1005.03
2023-12-04T11:53:03.293Z,1004.99
2023-12-04T11:54:01.539Z,1004.95
2023-12-04T11:55:02.003Z,1004.93
2023-12-04T11:56:01.712Z,1004.89
2023-12-04T11:57:01.853Z,1004.89
2023-12-04T11:58:01.884Z,1004.89
2023-12-04T11:59:03.892Z,1004.89
2023-12-04T12:00:02.002Z,1004.85
2023-12-04T12:01:02.094Z,1004.80
2023-12-04T12:02:02.295Z,1004.78
2023-12-04T12:03:16.797Z,1004.80
2023-12-04T12:04:02.596Z,1004.74
2023-12-04T12:05:02.516Z,1004.67
2023-12-04T12:06:02.692Z,1004.75
2023-12-04T12:07:02.632Z,1004.73
2023-12-04T12:08:02.632Z,1004.74
2023-12-04T12:09:02.765Z,1004.71
2023-12-04T12:10:02.926Z,1004.67
2023-12-04T12:11:02.916Z,1004.65
2023-12-04T12:12:03.012Z,1004.64
2023-12-04T12:13:03.109Z,1004.61
2023-12-04T12:14:03.158Z,1004.58
2023-12-04T12:15:03.281Z,1004.63
2023-12-04T12:16:03.348Z,1004.57
2023-12-04T12:17:03.423Z,1004.57
2023-12-04T12:18:03.644Z,1004.54
2023-12-04T12:19:03.701Z,1004.56
2023-12-04T12:20:03.663Z,1004.56
2023-12-04T12:21:03.836Z,1004.59
2023-12-04T12:22:05.459Z,1004.57
2023-12-04T12:23:03.900Z,1004.57
2023-12-04T12:24:04.055Z,1004.53
2023-12-04T12:25:04.110Z,1004.57
2023-12-04T12:26:05.749Z,1004.58
2023-12-04T12:27:04.249Z,1004.55
2023-12-04T12:28:04.332Z,1004.52
2023-12-04T12:29:04.406Z,1004.52
2023-12-04T12:30:04.576Z,1004.54
2023-12-04T12:31:04.591Z,1004.49
